createdAt,value
2023-01-17T00:02:15.952Z,98165.13
2023-01-17T00:05:42.638Z,98161.53
2023-01-17T00:09:09.909Z,98163.97
2023-01-17T00:12:16.119Z,98152.31
2023-01-17T00:15:25.056Z,98157.81
2023-01-17T00:18:31.355Z,98150.63
2023-01-17T00:21:55.554Z,98154.94
2023-01-17T00:25:21.840Z,98148.69
2023-01-17T00:28:30.672Z,98150.06
2023-01-17T00:31:38.293Z,98145.28
2023-01-17T00:34:44.154Z,98144.47
2023-01-17T00:37:53.297Z,98149.63
2023-01-17T00:41:08.280Z,98138.53
2023-01-17T00:44:33.650Z,98142.78
2023-01-17T00:47:58.865Z,98139.13
2023-01-17T00:51:24.677Z,98139.41
2023-01-17T00:54:50.798Z,98144.84
2023-01-17T00:58:18.287Z,98144.66
2023-01-17T01:01:44.179Z,98138.31
2023-01-17T01:05:10.295Z,98134.25
2023-01-17T01:08:37.840Z,98139.13
2023-01-17T01:12:02.217Z,98140.22
2023-01-17T01:15:28.428Z,98135.34
2023-01-17T01:18:53.454Z,98135.19
2023-01-17T01:22:18.327Z,98126.78
2023-01-17T01:25:46.081Z,98128.91
2023-01-17T01:29:15.105Z,98128.31
2023-01-17T01:32:40.520Z,98135.25
2023-01-17T01:35:46.132Z,98148.19
2023-01-17T01:38:55.863Z,98145.84
2023-01-17T01:42:02.144Z,98143.41
2023-01-17T01:45:20.441Z,98151.25
2023-01-17T01:48:46.334Z,98158.97
2023-01-17T01:52:00.248Z,98163.75
2023-01-17T01:55:08.992Z,98164.56
2023-01-17T01:58:19.389Z,98158.97
2023-01-17T02:01:26.206Z,98149.09
2023-01-17T02:04:36.597Z,98136.63
2023-01-17T02:07:55.209Z,98121.03
2023-01-17T02:11:03.251Z,98112.72
2023-01-17T02:14:09.863Z,98109.66
2023-01-17T02:17:16.249Z,98108.69
2023-01-17T02:20:35.058Z,98104.59
2023-01-17T02:23:53.748Z,98102.63
2023-01-17T02:27:17.664Z,98114.00
2023-01-17T02:30:27.289Z,98107.84
2023-01-17T02:33:41.213Z,98106.66
2023-01-17T02:37:09.037Z,98115.72
2023-01-17T02:40:15.306Z,98108.84
2023-01-17T02:43:25.374Z,98107.03
2023-01-17T02:46:36.187Z,98102.63
2023-01-17T02:49:43.678Z,98093.09
2023-01-17T02:52:50.774Z,98083.97
2023-01-17T02:56:02.495Z,98083.00
2023-01-17T02:59:12.618Z,98083.97
2023-01-17T03:02:24.802Z,98055.13
2023-01-17T03:05:40.349Z,98044.00
2023-01-17T03:08:49.474Z,98036.13
2023-01-17T03:11:57.944Z,98034.69
2023-01-17T03:15:05.412Z,98034.50
2023-01-17T03:18:16.340Z,98016.12
2023-01-17T03:21:25.659Z,98026.53
2023-01-17T03:24:34.671Z,98022.66
2023-01-17T03:27:43.785Z,98014.16
2023-01-17T03:30:52.327Z,98006.16
2023-01-17T03:34:05.619Z,98002.66
2023-01-17T03:37:15.314Z,98008.09
2023-01-17T03:40:23.837Z,98006.94
2023-01-17T03:43:32.344Z,97996.87
2023-01-17T03:46:40.192Z,97985.75
2023-01-17T03:49:51.324Z,97988.34
2023-01-17T03:53:02.367Z,97993.16
2023-01-17T03:56:10.948Z,97983.13
2023-01-17T03:59:22.385Z,97975.88
2023-01-17T04:02:30.907Z,97972.00
2023-01-17T04:05:41.263Z,97970.25
2023-01-17T04:08:51.131Z,97969.91
2023-01-17T04:12:00.113Z,97980.75
2023-01-17T04:15:05.592Z,97980.41
2023-01-17T04:18:11.735Z,97974.78
2023-01-17T04:21:16.556Z,97969.53
2023-01-17T04:24:26.598Z,97970.94
2023-01-17T04:27:35.087Z,97970.78
2023-01-17T04:30:46.330Z,97971.59
2023-01-17T04:33:55.910Z,97979.47
2023-01-17T04:37:04.863Z,97974.66
2023-01-17T04:40:12.076Z,97974.31
2023-01-17T04:43:19.700Z,97974.09
2023-01-17T04:46:26.259Z,97975.72
2023-01-17T04:49:33.930Z,97965.66
2023-01-17T04:52:41.248Z,97971.72
2023-01-17T04:55:48.874Z,97977.62
2023-01-17T04:58:55.799Z,97963.75
2023-01-17T05:02:05.032Z,97958.84
2023-01-17T05:05:10.029Z,97960.06
2023-01-17T05:08:17.053Z,97970.91
2023-01-17T05:11:24.021Z,97964.75
2023-01-17T05:14:34.808Z,97977.66
2023-01-17T05:17:40.907Z,97971.06
2023-01-17T05:20:49.691Z,97977.12
2023-01-17T05:23:57.783Z,97964.78
2023-01-17T05:27:04.465Z,97964.22
2023-01-17T05:30:11.513Z,97972.56
2023-01-17T05:33:18.810Z,97978.81
2023-01-17T05:36:25.521Z,97972.09
2023-01-17T05:39:36.301Z,97973.75
2023-01-17T05:42:47.282Z,97978.38
2023-01-17T05:45:54.351Z,97981.00
2023-01-17T05:49:02.406Z,97973.31
2023-01-17T05:52:10.639Z,97982.00
2023-01-17T05:55:15.138Z,97995.94
2023-01-17T05:58:21.295Z,98018.75
2023-01-17T06:01:27.077Z,98012.94
2023-01-17T06:04:32.664Z,98025.63
2023-01-17T06:07:37.821Z,98025.25
2023-01-17T06:10:42.979Z,98024.06
2023-01-17T06:13:48.769Z,98035.81
2023-01-17T06:16:55.674Z,98042.63
2023-01-17T06:20:01.215Z,98040.09
2023-01-17T06:23:07.999Z,98034.19
2023-01-17T06:26:11.595Z,98043.75
2023-01-17T06:29:16.756Z,98040.19
2023-01-17T06:32:21.439Z,98041.56
2023-01-17T06:35:25.703Z,98041.38
2023-01-17T06:38:30.125Z,98042.37
2023-01-17T06:41:34.208Z,98048.44
2023-01-17T06:44:38.136Z,98061.75
2023-01-17T06:47:42.621Z,98072.63
2023-01-17T06:50:49.953Z,98085.28
2023-01-17T06:53:54.193Z,98090.28
2023-01-17T06:56:57.946Z,98093.16
2023-01-17T07:00:02.750Z,98104.28
2023-01-17T07:03:07.821Z,98107.91
2023-01-17T07:06:12.375Z,98108.28
2023-01-17T07:09:16.493Z,98114.25
2023-01-17T07:12:20.759Z,98125.13
2023-01-17T07:15:24.077Z,98135.53
2023-01-17T07:18:27.736Z,98145.12
2023-01-17T07:21:31.449Z,98141.50
2023-01-17T07:24:37.977Z,98143.22
2023-01-17T07:27:41.574Z,98149.72
2023-01-17T07:30:46.086Z,98153.44
2023-01-17T07:33:49.225Z,98154.44
2023-01-17T07:36:55.190Z,98161.59
2023-01-17T07:40:00.201Z,98161.47
2023-01-17T07:43:13.978Z,98170.97
2023-01-17T07:46:18.011Z,98180.34
2023-01-17T07:49:22.970Z,98188.31
2023-01-17T07:52:27.091Z,98199.12
2023-01-17T07:55:30.946Z,98210.09
2023-01-17T07:58:35.321Z,98219.84
2023-01-17T08:01:40.358Z,98225.31
2023-01-17T08:04:44.237Z,98227.66
2023-01-17T08:07:47.385Z,98233.00
2023-01-17T08:10:51.937Z,98228.94
2023-01-17T08:13:59.597Z,98236.50
2023-01-17T08:17:07.069Z,98241.56
2023-01-17T08:20:10.346Z,98246.72
2023-01-17T08:23:16.583Z,98253.16
2023-01-17T08:26:23.694Z,98257.41
2023-01-17T08:29:27.060Z,98274.53
2023-01-17T08:32:30.253Z,98275.53
2023-01-17T08:35:36.111Z,98263.03
2023-01-17T08:38:42.059Z,98276.22
2023-01-17T08:41:47.542Z,98287.31
2023-01-17T08:44:51.713Z,98290.81
2023-01-17T08:47:59.305Z,98303.69
2023-01-17T08:51:05.548Z,98290.56
2023-01-17T08:54:15.412Z,98290.66
2023-01-17T08:57:20.973Z,98277.06
2023-01-17T09:00:27.950Z,98277.59
2023-01-17T09:03:33.037Z,98285.72
2023-01-17T09:06:41.579Z,98278.91
2023-01-17T09:09:45.173Z,98288.84
2023-01-17T09:12:50.798Z,98283.16
2023-01-17T09:15:58.373Z,98278.37
2023-01-17T09:19:03.568Z,98304.84
2023-01-17T09:22:07.981Z,98306.28
2023-01-17T09:25:11.830Z,98303.66
2023-01-17T09:28:15.178Z,98308.56
2023-01-17T09:31:21.077Z,98311.41
2023-01-17T09:34:25.147Z,98303.88
2023-01-17T09:37:28.885Z,98313.28
2023-01-17T09:40:32.609Z,98319.75
2023-01-17T09:43:44.154Z,98331.69
2023-01-17T09:46:49.493Z,98331.56
2023-01-17T09:49:57.171Z,98324.69
2023-01-17T09:53:05.999Z,98339.37
2023-01-17T09:56:16.783Z,98336.53
2023-01-17T09:59:33.136Z,98345.53
2023-01-17T10:02:56.943Z,98351.06
2023-01-17T10:06:11.182Z,98362.50
2023-01-17T10:09:20.381Z,98352.34
2023-01-17T10:12:49.280Z,98365.88
2023-01-17T10:16:02.257Z,98366.47
2023-01-17T10:19:10.093Z,98368.84
2023-01-17T10:22:39.772Z,98360.78
2023-01-17T10:25:48.919Z,98369.31
2023-01-17T10:29:00.112Z,98374.38
2023-01-17T10:32:04.055Z,98371.84
2023-01-17T10:35:17.491Z,98364.09
2023-01-17T10:38:25.240Z,98367.06
2023-01-17T10:41:39.101Z,98357.28
2023-01-17T10:45:01.898Z,98360.31
2023-01-17T10:48:23.284Z,98343.50
2023-01-17T10:51:32.264Z,98337.22
2023-01-17T10:54:57.080Z,98338.94
2023-01-17T10:58:03.416Z,98340.03
2023-01-17T11:01:15.942Z,98334.50
2023-01-17T11:04:22.078Z,98325.78
2023-01-17T11:07:26.403Z,98317.31
2023-01-17T11:10:42.842Z,98313.56
2023-01-17T11:13:51.355Z,98312.06
2023-01-17T11:17:03.680Z,98293.78
2023-01-17T11:20:15.604Z,98298.41
2023-01-17T11:23:21.963Z,98296.78
2023-01-17T11:26:26.280Z,98301.44
2023-01-17T11:29:37.111Z,98295.13
2023-01-17T11:32:53.233Z,98282.50
2023-01-17T11:35:57.255Z,98285.97
2023-01-17T11:39:05.783Z,98279.16
2023-01-17T11:42:32.688Z,98267.81
2023-01-17T11:45:37.483Z,98258.34
2023-01-17T11:48:42.515Z,98258.50
2023-01-17T11:51:45.710Z,98260.06
2023-01-17T11:54:50.637Z,98262.13
2023-01-17T11:57:55.786Z,98262.87
2023-01-17T12:01:04.159Z,98264.84
2023-01-17T12:04:23.593Z,98270.13
2023-01-17T12:07:31.095Z,98296.41
2023-01-17T12:10:38.010Z,98310.00
2023-01-17T12:14:03.079Z,98296.34
2023-01-17T12:17:29.307Z,98292.09
2023-01-17T12:20:37.863Z,98301.81
2023-01-17T12:23:57.771Z,98301.56
2023-01-17T12:27:10.426Z,98294.03
2023-01-17T12:30:39.605Z,98295.88
2023-01-17T12:33:44.620Z,98295.47
2023-01-17T12:36:59.197Z,98300.13
2023-01-17T12:40:07.296Z,98287.16
2023-01-17T12:43:20.182Z,98299.47
2023-01-17T12:46:31.696Z,98306.84
2023-01-17T12:49:47.761Z,98296.44
2023-01-17T12:53:20.273Z,98299.69
2023-01-17T12:56:48.073Z,98302.81
2023-01-17T13:00:11.410Z,98294.22
2023-01-17T13:03:29.772Z,98287.56
2023-01-17T13:06:52.633Z,98282.50
2023-01-17T13:10:21.119Z,98293.63
2023-01-17T13:13:26.220Z,98288.72
2023-01-17T13:16:34.024Z,98286.44
2023-01-17T13:19:45.188Z,98283.56
2023-01-17T13:22:51.368Z,98276.66
2023-01-17T13:25:57.724Z,98287.78
2023-01-17T13:29:05.219Z,98291.19
2023-01-17T13:32:18.397Z,98300.06
2023-01-17T13:35:28.074Z,98292.75
2023-01-17T13:38:42.555Z,98299.06
2023-01-17T13:41:51.458Z,98297.25
2023-01-17T13:44:54.675Z,98282.16
2023-01-17T13:48:11.211Z,98282.69
2023-01-17T13:51:15.554Z,98273.78
2023-01-17T13:54:31.963Z,98281.69
2023-01-17T13:57:44.072Z,98265.44
2023-01-17T14:00:49.604Z,98267.81
2023-01-17T14:03:53.855Z,98256.06
2023-01-17T14:07:02.610Z,98244.28
2023-01-17T14:10:40.417Z,98240.78
2023-01-17T14:13:46.085Z,98230.66
2023-01-17T14:16:51.228Z,98214.19
2023-01-17T14:20:13.030Z,98205.47
2023-01-17T14:23:25.461Z,98194.72
2023-01-17T14:26:33.306Z,98194.28
2023-01-17T14:29:41.385Z,98191.59
2023-01-17T14:33:06.180Z,98200.72
2023-01-17T14:36:28.141Z,98183.88
2023-01-17T14:39:32.503Z,98167.09
2023-01-17T14:42:38.013Z,98164.41
2023-01-17T14:45:44.435Z,98153.81
2023-01-17T14:48:49.832Z,98151.75
2023-01-17T14:52:01.169Z,98166.50
2023-01-17T14:55:15.372Z,98161.25
2023-01-17T14:58:19.542Z,98148.06
2023-01-17T15:01:25.508Z,98134.91
2023-01-17T15:04:33.886Z,98147.56
2023-01-17T15:07:38.752Z,98137.06
2023-01-17T15:10:52.187Z,98136.09
2023-01-17T15:13:59.467Z,98137.84
2023-01-17T15:17:10.787Z,98139.03
2023-01-17T15:20:16.998Z,98157.66
2023-01-17T15:23:22.032Z,98148.78
2023-01-17T15:26:27.935Z,98138.66
2023-01-17T15:29:33.956Z,98141.87
2023-01-17T15:32:39.008Z,98137.72
2023-01-17T15:35:42.716Z,98142.59
2023-01-17T15:39:03.784Z,98141.53
2023-01-17T15:42:09.227Z,98122.47
2023-01-17T15:45:20.722Z,98116.66
2023-01-17T15:48:46.031Z,98112.13
2023-01-17T15:52:17.703Z,98105.69
2023-01-17T15:55:38.022Z,98097.16
2023-01-17T15:58:42.744Z,98103.00
2023-01-17T16:01:59.817Z,98094.94
2023-01-17T16:05:32.667Z,98088.03
2023-01-17T16:08:40.717Z,98084.78
2023-01-17T16:11:47.787Z,98080.31
2023-01-17T16:15:10.724Z,98083.13
2023-01-17T16:18:31.664Z,98083.16
2023-01-17T16:21:38.648Z,98084.56
2023-01-17T16:24:45.202Z,98085.34
2023-01-17T16:27:53.451Z,98083.59
2023-01-17T16:31:00.122Z,98080.91
2023-01-17T16:34:11.678Z,98065.53
2023-01-17T16:37:17.053Z,98059.50
2023-01-17T16:40:24.311Z,98058.63
2023-01-17T16:43:31.375Z,98061.25
2023-01-17T16:46:40.285Z,98057.34
2023-01-17T16:49:49.545Z,98051.94
2023-01-17T16:52:58.176Z,98053.47
2023-01-17T16:56:10.972Z,98049.13
2023-01-17T16:59:16.787Z,98043.19
2023-01-17T17:02:24.276Z,98039.88
2023-01-17T17:05:32.434Z,98039.63
2023-01-17T17:08:39.003Z,98038.94
2023-01-17T17:11:44.297Z,98028.56
2023-01-17T17:14:52.788Z,98027.50
2023-01-17T17:18:02.852Z,98030.69
2023-01-17T17:21:10.597Z,98017.69
2023-01-17T17:24:18.292Z,98016.25
2023-01-17T17:27:27.359Z,97996.81
2023-01-17T17:30:33.279Z,98002.06
2023-01-17T17:33:42.312Z,97995.00
2023-01-17T17:36:52.354Z,97992.38
2023-01-17T17:40:05.141Z,97983.06
2023-01-17T17:43:12.675Z,97978.16
2023-01-17T17:46:20.399Z,97971.50
2023-01-17T17:49:29.835Z,97959.63
2023-01-17T17:52:39.688Z,97948.69
2023-01-17T17:55:46.812Z,97940.81
2023-01-17T17:58:54.506Z,97938.19
2023-01-17T18:02:03.604Z,97934.75
2023-01-17T18:05:11.822Z,97930.31
2023-01-17T18:08:22.502Z,97912.13
2023-01-17T18:11:29.869Z,97897.37
2023-01-17T18:14:38.075Z,97890.31
2023-01-17T18:17:47.147Z,97885.25
2023-01-17T18:20:54.143Z,97878.56
2023-01-17T18:24:03.547Z,97869.63
2023-01-17T18:27:11.548Z,97865.03
2023-01-17T18:30:18.481Z,97850.44
2023-01-17T18:33:26.035Z,97846.59
2023-01-17T18:36:37.965Z,97846.16
2023-01-17T18:39:45.827Z,97836.22
2023-01-17T18:42:53.848Z,97831.16
2023-01-17T18:46:03.069Z,97839.41
2023-01-17T18:49:13.084Z,97830.09
2023-01-17T18:52:21.143Z,97826.06
2023-01-17T18:55:30.033Z,97809.88
2023-01-17T18:58:46.120Z,97814.69
2023-01-17T19:01:57.210Z,97806.00
2023-01-17T19:05:06.567Z,97797.69
2023-01-17T19:08:15.428Z,97776.28
2023-01-17T19:11:24.096Z,97776.66
2023-01-17T19:14:36.272Z,97773.44
2023-01-17T19:17:44.970Z,97769.16
2023-01-17T19:20:57.326Z,97758.88
2023-01-17T19:24:08.906Z,97752.37
2023-01-17T19:27:21.233Z,97747.88
2023-01-17T19:30:28.955Z,97746.88
2023-01-17T19:33:38.289Z,97743.84
2023-01-17T19:36:46.426Z,97734.56
2023-01-17T19:39:55.622Z,97731.47
2023-01-17T19:43:04.669Z,97714.94
2023-01-17T19:46:12.527Z,97705.25
2023-01-17T19:49:25.574Z,97695.16
2023-01-17T19:52:33.509Z,97685.59
2023-01-17T19:55:41.568Z,97675.69
2023-01-17T19:58:51.789Z,97676.50
2023-01-17T20:02:03.075Z,97664.97
2023-01-17T20:05:11.090Z,97646.00
2023-01-17T20:08:17.099Z,97650.25
2023-01-17T20:11:27.131Z,97645.94
2023-01-17T20:14:34.840Z,97652.19
2023-01-17T20:17:41.606Z,97654.19
2023-01-17T20:20:56.976Z,97657.38
2023-01-17T20:24:07.917Z,97664.59
2023-01-17T20:27:12.842Z,97648.53
2023-01-17T20:30:20.869Z,97631.94
2023-01-17T20:33:29.695Z,97637.09
2023-01-17T20:36:37.124Z,97647.16
2023-01-17T20:39:43.712Z,97644.28
2023-01-17T20:42:53.327Z,97652.94
2023-01-17T20:45:59.528Z,97659.38
2023-01-17T20:49:14.293Z,97658.19
2023-01-17T20:52:19.410Z,97646.78
2023-01-17T20:55:25.437Z,97635.97
2023-01-17T20:58:35.201Z,97645.19
2023-01-17T21:01:45.345Z,97642.25
2023-01-17T21:04:55.101Z,97632.31
2023-01-17T21:08:06.074Z,97602.28
2023-01-17T21:11:17.216Z,97558.72
2023-01-17T21:14:27.013Z,97565.12
2023-01-17T21:17:34.938Z,97565.91
2023-01-17T21:20:44.525Z,97569.41
2023-01-17T21:23:53.889Z,97556.16
2023-01-17T21:27:02.030Z,97550.66
2023-01-17T21:30:11.089Z,97528.50
2023-01-17T21:33:20.001Z,97518.50
2023-01-17T21:36:31.358Z,97520.69
2023-01-17T21:39:43.508Z,97516.63
2023-01-17T21:42:53.344Z,97507.72
2023-01-17T21:46:02.773Z,97518.53
2023-01-17T21:49:08.781Z,97517.19
2023-01-17T21:52:14.679Z,97497.53
2023-01-17T21:55:52.113Z,97483.31
2023-01-17T21:58:59.842Z,97493.50
2023-01-17T22:02:11.702Z,97513.34
2023-01-17T22:05:19.257Z,97500.09
2023-01-17T22:08:39.264Z,97486.09
2023-01-17T22:11:50.145Z,97479.78
2023-01-17T22:14:58.413Z,97478.63
2023-01-17T22:18:06.031Z,97468.19
2023-01-17T22:21:16.240Z,97476.63
2023-01-17T22:24:23.957Z,97467.38
2023-01-17T22:27:29.314Z,97456.47
2023-01-17T22:30:35.092Z,97450.00
2023-01-17T22:33:40.400Z,97457.91
2023-01-17T22:36:46.859Z,97455.78
2023-01-17T22:39:51.103Z,97444.72
2023-01-17T22:42:57.331Z,97456.78
2023-01-17T22:46:02.212Z,97469.13
2023-01-17T22:49:09.678Z,97480.47
2023-01-17T22:52:13.633Z,97491.28
2023-01-17T22:55:18.995Z,97492.34
2023-01-17T22:58:25.898Z,97485.19
2023-01-17T23:01:34.330Z,97473.94
2023-01-17T23:04:38.683Z,97472.69
2023-01-17T23:07:44.724Z,97475.69
2023-01-17T23:11:08.587Z,97468.34
2023-01-17T23:14:23.368Z,97482.66
2023-01-17T23:17:48.206Z,97488.53
2023-01-17T23:20:58.490Z,97478.75
2023-01-17T23:24:06.538Z,97483.97
2023-01-17T23:27:33.248Z,97484.22
2023-01-17T23:30:41.869Z,97481.62
2023-01-17T23:33:50.268Z,97502.59
2023-01-17T23:36:58.998Z,97506.41
2023-01-17T23:40:09.507Z,97498.72
2023-01-17T23:43:25.407Z,97503.78
2023-01-17T23:46:36.570Z,97496.62
2023-01-17T23:49:47.224Z,97487.94
2023-01-17T23:52:54.339Z,97494.37
2023-01-17T23:56:06.513Z,97494.25
2023-01-17T23:59:13.479Z,97499.56
